Crew | Aerofun Virtual



 METAR AND TAF INFORMATION
METAR FOR LEAS
ADDS - METARS form results

(0110 UTC 22 May 2019)
Data provider http://aviationweather.gov/metar/data/
 
METAR text: LEAS 220100Z AUTO VRB02KT 9000 NCD 10/10 Q1019
Conditions at: LEAS (ASTURIAS/AVILES , ES) observed 0100 UTC 22 May 2019
Temperature: 10.0°C (50°F)
Dewpoint: 10.0°C (50°F) [RH = 100%]
Pressure (altimeter): 30.09 inches Hg (1019.0 mb)
Winds: variable direction winds at 2 MPH (2 knots; 1.0 m/s)
Visibility: 6 miles ( 9 km)
Ceiling: at least 12,000 feet AGL
Clouds: sky clear below 12,000 feet AGL
Weather: no significant weather observed at this time

METAR text: LEAS 220030Z AUTO VRB01KT 9999 NCD 11/10 Q1019
Conditions at: LEAS (ASTURIAS/AVILES , ES) observed 0030 UTC 22 May 2019
Temperature: 11.0°C (52°F)
Dewpoint: 10.0°C (50°F) [RH = 94%]
Pressure (altimeter): 30.09 inches Hg (1019.0 mb)
Winds: variable direction winds at 1 MPH (1 knots; 0.5 m/s)
Visibility: 6 or more miles (10+ km)
Ceiling: at least 12,000 feet AGL
Clouds: sky clear below 12,000 feet AGL
Weather: no significant weather observed at this time

Forecast for: LEAS (ASTURIAS/AVILES , ES)
Text: TAF LEAS 212000Z 2121/2221 08008KT 9999 FEW030 TX19/2213Z TN07/2205Z
Forecast period: 2100 UTC 21 May 2019 to 2100 UTC 22 May 2019
Forecast type: FROM: standard forecast or significant change
Winds: from the E (80 degrees) at 9 MPH (8 knots; 4.1 m/s)
Visibility: 6 or more miles 10+ km)
Ceiling: at least 12,000 feet AGL
Clouds: few clouds at 3000 feet AGL
Weather: no significant weather forecast for this period
Text: TEMPO 2121/2206 3000 BR BKN010
Forecast period: 2100 UTC 21 May 2019 to 0600 UTC 22 May 2019
Forecast type: TEMPORARY: The following changes expected for less than half the time period
Visibility: 1.86 miles (2.99 km)
Ceiling: 1000 feet AGL
Clouds: broken clouds at 1000 feet AGL
Weather: BR  (mist)

 AIRPORT MAP

 RUNWAY INFORMATION
Runway 11 Runway length 7218 ft Runway width 148 ft
Runway elevation 399 ft Runway displaced threshold 0 ft Runway heading 109
Runway 29 Runway length 7218 ft Runway width 148 ft
Runway elevation 399 ft Runway displaced threshold 0 ft Runway heading 289

 AIRPORT FREQUENCIES
Type APP Name APP Frequency 118.15 MHZ
Type GND Name GND Frequency 121.7 MHZ
Type TWR Name TWR Frequency 118.15 MHZ

 AIRPORT NEAR NAVIGATION AIDS
Type NDB Name Asturias Frequency 325 KHZ
Type NDB Name Asturias Frequency 387 KHZ
Type VOR-DME Name Asturias Frequency 112400 KHZ